• Join FlightAware (Why Join?)
  • Login
  • US Flag 
01:11PM EDT


 

Airport Tracker/Info


-or-


 

Live Flight TrackerFlight Track Log ✈ N1926A ✈ 27-Feb-2014 ✈ KXNA - KEGE

Flight Track Log - Related Links

Times and Time Zones

All times are in EST time to prevent confusion due to time zone crossing. See the N1926A flight status page for this flight to view local times or setup timezone preferences in your user account.

Time Position Orientation Groundspeed Altitude Reporting Facility
EST Latitude Longitude Course Direction KTS MPH feet Rate Location/Type
03:58PM 36.2442 -94.4314 297° West 198 228 6,600  Level Kansas City Center
03:59PM 36.2728 -94.5044 296° West 198 228 8,000 1,200 Climbing Kansas City Center
04:00PM 36.2967 -94.5681 295° West 199 229 9,200 1,200 Climbing Kansas City Center
04:01PM 36.4193 -94.7412 293° West  Level FlightAware Approximate
04:01PM 36.3217 -94.6292 297° West 200 230 10,500  Level Kansas City Center
04:02PM 36.4445 -94.8166 293° West  Level FlightAware Approximate
04:02PM 36.3464 -94.6881 298° West 195 224 11,600  Level Kansas City Center
04:03PM 36.3678 -94.7506 293° West 195 224 12,800 1,080 Climbing Kansas City Center
04:04PM 36.3869 -94.8136 291° West 195 224 13,900 1,140 Climbing Kansas City Center
04:05PM 36.4128 -94.8911 293° West 198 228 15,200 900 Climbing Kansas City Center
04:06PM 36.4325 -94.9581 290° West 202 232 15,800 720 Climbing Kansas City Center
04:07PM 36.4564 -95.0306 292° West 218 251 16,700 840 Climbing Kansas City Center
04:08PM 36.4794 -95.0997 293° West 219 252 17,600 780 Climbing Kansas City Center
04:09PM 36.5006 -95.1667 291° West 219 252 18,400 720 Climbing Kansas City Center
04:10PM 36.5228 -95.2347 292° West 218 251 19,200 840 Climbing Kansas City Center
04:11PM 36.5497 -95.3153 293° West 214 246 20,200 780 Climbing Kansas City Center
04:12PM 36.5719 -95.3811 293° West 211 243 20,900 660 Climbing Kansas City Center
04:13PM 36.5931 -95.4475 292° West 210 242 21,600 660 Climbing Kansas City Center
04:14PM 36.6144 -95.5136 292° West 210 242 22,300 600 Climbing Kansas City Center
04:15PM 36.6375 -95.5833 292° West 210 242 22,900 600 Climbing Kansas City Center
04:16PM 36.6622 -95.6583 292° West 210 242 23,600 540 Climbing Kansas City Center
04:17PM 36.6839 -95.7242 292° West 209 241 24,100 480 Climbing Kansas City Center
04:19PM 36.7050 -95.7892 292° West 208 239 24,600 420 Climbing Kansas City Center
04:20PM 36.7267 -95.8542 293° West 208 239 25,000 480 Climbing Kansas City Center
04:21PM 36.7481 -95.9183 293° West 205 236 25,600 480 Climbing Kansas City Center
04:22PM 36.7681 -95.9822 291° West 202 232 26,000 180 Climbing Kansas City Center
04:23PM 36.7933 -96.0656 291° West 208 239 26,000  Level Kansas City Center
04:24PM 36.8156 -96.1358 292° West 212 244 26,000  Level Kansas City Center
04:25PM 36.8386 -96.2067 292° West 219 252 26,000  Level Kansas City Center
04:26PM 36.8622 -96.2797 292° West 221 254 26,000  Level Kansas City Center
04:27PM 36.8850 -96.3511 292° West 222 255 26,000  Level Kansas City Center
04:28PM 36.9086 -96.4253 292° West 224 258 26,000  Level Kansas City Center
04:29PM 36.9300 -96.4969 290° West 223 257 26,000  Level Kansas City Center
04:30PM 36.9600 -96.5869 293° West 227 261 26,000  Level Kansas City Center
04:31PM 36.9836 -96.6611 292° West 228 262 26,000  Level Kansas City Center
04:32PM 37.0061 -96.7344 291° West 229 264 26,000  Level Kansas City Center
04:33PM 37.0322 -96.8089 294° West 235 270 26,000  Level Kansas City Center
04:34PM 37.0547 -96.8850 290° West 238 274 26,000  Level Kansas City Center
04:35PM 37.0761 -96.9594 290° West 235 270 26,000  Level Kansas City Center
04:36PM 37.1050 -97.0494 292° West 234 269 26,000  Level Kansas City Center
04:37PM 37.1303 -97.1219 294° West 232 267 26,000  Level Kansas City Center
04:38PM 37.1531 -97.1944 292° West 230 265 26,000  Level Kansas City Center
04:39PM 37.1769 -97.2708 291° West 234 269 26,000  Level Kansas City Center
04:40PM 37.2000 -97.3472 291° West 235 270 26,000  Level Kansas City Center
04:41PM 37.2219 -97.4231 290° West 235 270 26,000  Level Kansas City Center
04:42PM 37.2483 -97.5208 289° West 245 282 26,000  Level Kansas City Center
04:43PM 37.2725 -97.5981 291° West 243 280 26,000  Level Kansas City Center
04:44PM 37.2964 -97.6736 292° West 239 275 26,000  Level Kansas City Center
04:45PM 37.3181 -97.7508 289° West 236 272 26,000  Level Kansas City Center
04:46PM 37.3411 -97.8281 291° West 236 272 26,000  Level Kansas City Center
04:47PM 37.3650 -97.9050 291° West 236 272 26,000  Level Kansas City Center
04:49PM 37.3878 -97.9800 291° West 235 270 26,000  Level Kansas City Center
04:50PM 37.4144 -98.0719 290° West 234 269 26,000  Level Kansas City Center
04:51PM 37.4333 -98.1497 287° West 234 269 26,000  Level Kansas City Center
04:52PM 37.4539 -98.2267 289° West 234 269 26,000  Level Kansas City Center
04:53PM 37.4769 -98.3017 291° West 234 269 26,000  Level Kansas City Center
04:54PM 37.5006 -98.3783 291° West 234 269 26,000  Level Kansas City Center
04:55PM 37.5258 -98.4542 293° West 234 269 26,000  Level Kansas City Center
04:56PM 37.5547 -98.5461 292° West 234 269 26,000  Level Kansas City Center
04:57PM 37.5797 -98.6236 292° West 235 270 26,000  Level Kansas City Center
04:58PM 37.6022 -98.7017 290° West 235 270 26,000  Level Kansas City Center
04:59PM 37.6233 -98.7797 289° West 235 270 26,000  Level Kansas City Center
05:00PM 37.6486 -98.8614 291° West 244 281 26,000  Level Kansas City Center
05:01PM 37.6700 -98.9392 289° West 242 278 26,000  Level Kansas City Center
05:02PM 37.6967 -99.0314 290° West 239 275 26,000  Level Kansas City Center
05:03PM 37.7189 -99.1100 290° West 238 274 26,000  Level Kansas City Center
05:04PM 37.7403 -99.1878 289° West 238 274 26,000  Level Kansas City Center
05:05PM 37.7622 -99.2661 290° West 237 273 26,000  Level Kansas City Center
05:06PM 37.7842 -99.3431 290° West 237 273 26,000  Level Kansas City Center
05:07PM 37.8072 -99.4211 291° West 237 273 26,000  Level Kansas City Center
05:08PM 37.8333 -99.5125 290° West 237 273 26,000  Level Kansas City Center
05:09PM 37.8578 -99.5994 290° West 237 273 26,000  Level Kansas City Center
05:10PM 37.8781 -99.6753 289° West 237 273 26,000  Level Kansas City Center
05:11PM 37.9003 -99.7514 290° West 238 274 26,000  Level Kansas City Center
05:12PM 37.9247 -99.8386 290° West 237 273 26,000  Level Kansas City Center
05:13PM 37.9453 -99.9150 289° West 239 275 26,000  Level Kansas City Center
05:14PM 37.9725 -100.0050 291° West 241 277 26,000  Level Kansas City Center
05:15PM 37.9928 -100.0817 289° West 241 277 26,000  Level Kansas City Center
05:16PM 38.0164 -100.1708 289° West 240 276 26,000  Level Kansas City Center
05:17PM 38.0372 -100.2472 289° West 240 276 26,000  Level Kansas City Center
05:19PM 38.0625 -100.3364 290° West 241 277 26,000  Level Kansas City Center
05:20PM 38.0831 -100.4128 289° West 240 276 26,000  Level Kansas City Center
05:21PM 38.1072 -100.5033 289° West 241 277 26,000  Level Kansas City Center
05:22PM 38.1278 -100.5808 289° West 241 277 26,000  Level Kansas City Center
05:23PM 38.1517 -100.6697 289° West 241 277 26,000  Level Kansas City Center
05:24PM 38.1736 -100.7464 290° West 241 277 26,000  Level Kansas City Center
05:25PM 38.1975 -100.8372 289° West 241 277 26,000  Level Kansas City Center
05:26PM 38.2181 -100.9153 289° West 242 278 26,000  Level Kansas City Center
05:27PM 38.2425 -101.0058 289° West 242 278 26,000  Level Kansas City Center
05:28PM 38.2631 -101.0833 289° West 242 278 26,000  Level Kansas City Center
05:29PM 38.2883 -101.1744 289° West 243 280 26,000  Level Denver Center
05:30PM 38.3081 -101.2519 288° West 243 280 26,000  Level Denver Center
05:31PM 38.3322 -101.3419 289° West 241 277 26,000  Level Denver Center
05:32PM 38.3514 -101.4181 288° West 240 276 26,000  Level Denver Center
05:33PM 38.3758 -101.5089 289° West 241 277 26,000  Level Denver Center
05:34PM 38.3956 -101.5864 288° West 242 278 26,000  Level Denver Center
05:35PM 38.4197 -101.6772 289° West 242 278 26,000  Level Denver Center
05:36PM 38.4394 -101.7547 288° West 242 278 26,000  Level Denver Center
05:37PM 38.4675 -101.8592 289° West 245 282 26,000  Level Denver Center
05:38PM 38.4947 -101.9481 291° West 248 285 26,000  Level Denver Center
05:39PM 38.5372 -102.0114 311° West 248 285 26,000  Level Denver Center
05:40PM 38.5781 -102.0922 303° West 261 300 26,000  Level Denver Center
05:42PM 38.5978 -102.1703 288° West 241 277 26,000  Level Denver Center
05:43PM 38.6264 -102.2600 292° West 244 281 26,000  Level Denver Center
05:44PM 38.6525 -102.3367 294° West 244 281 26,000  Level Denver Center
05:45PM 38.6797 -102.4108 295° West 245 282 26,000  Level Denver Center
05:46PM 38.7111 -102.5008 294° West 246 283 26,000  Level Denver Center
05:47PM 38.7381 -102.5761 295° West 246 283 26,000  Level Denver Center
05:48PM 38.7700 -102.6631 295° West 244 281 26,000  Level Denver Center
05:49PM 38.7964 -102.7394 294° West 243 280 26,000  Level Denver Center
05:50PM 38.8272 -102.8236 295° West 245 282 26,000  Level Denver Center
05:51PM 38.8531 -102.9036 293° West 244 281 26,000  Level Denver Center
05:52PM 38.8800 -102.9811 294° West 243 280 26,000  Level Denver Center
05:53PM 38.9106 -103.0750 293° West 241 277 26,000  Level Denver Center
05:54PM 38.9361 -103.1528 293° West 239 275 26,000  Level Denver Center
05:55PM 38.9617 -103.2300 293° West 239 275 26,000  Level Denver Center
05:56PM 38.9878 -103.3086 293° West 238 274 26,000  Level Denver Center
05:57PM 39.0131 -103.3853 293° West 236 272 26,000  Level Denver Center
05:58PM 39.0400 -103.4625 294° West 237 273 26,000  Level Denver Center
05:59PM 39.0717 -103.5569 293° West 239 275 26,000  Level Denver Center
06:00PM 39.0975 -103.6333 294° West 235 270 26,000  Level Denver Center
06:01PM 39.1547 -103.6806 327° Northwest 250 288 26,000  Level Denver Center
06:02PM 39.2089 -103.7364 321° Northwest 248 285 26,000  Level Denver Center
06:03PM 39.2594 -103.7944 318° Northwest 249 287 26,000  Level Denver Center
06:04PM 39.3083 -103.8569 315° West 248 285 26,000  Level Denver Center
06:05PM 39.3661 -103.9306 315° West 247 284 26,000  Level Denver Center
06:06PM 39.4161 -103.9906 317° Northwest 247 284 26,000  Level Denver Center
06:07PM 39.4639 -104.0528 315° West 245 282 26,000  Level Denver Center
06:08PM 39.5117 -104.1150 315° West 245 282 26,000  Level Denver Center
06:09PM 39.5592 -104.1747 316° Northwest 244 281 26,000  Level Denver Center
06:10PM 39.6161 -104.2472 316° Northwest 243 280 26,000  Level Denver Center
06:12PM 39.6650 -104.3081 316° Northwest 243 280 26,000  Level Denver Center
06:13PM 39.7150 -104.3694 317° Northwest 248 285 26,000  Level Denver Center
06:14PM 39.7656 -104.4306 317° Northwest 248 285 26,000  Level Denver Center
06:15PM 39.8169 -104.4903 318° Northwest 249 287 26,000  Level Denver Center
06:16PM 39.8742 -104.5644 315° West 248 285 26,000  Level Denver Center
06:17PM 39.9228 -104.6267 316° Northwest 248 285 26,000  Level Denver Center
06:18PM 39.9714 -104.6881 316° Northwest 247 284 26,000  Level Denver Center
06:19PM 40.0197 -104.7494 316° Northwest 246 283 26,000  Level Denver Center
06:20PM 40.0575 -104.8208 305° West 249 287 26,000  Level Denver Center
06:21PM 40.0314 -104.9181 251° West 244 281 26,000  Level Denver Center
06:22PM 40.0047 -104.9994 247° West 244 281 26,000  Level Denver Center
06:23PM 39.9819 -105.0825 250° West 244 281 26,000  Level Denver Center
06:24PM 39.9631 -105.1661 254° West 244 281 26,000  Level Denver Center
06:25PM 39.9583 -105.2525 266° West 253 291 26,000  Level Denver Center
06:26PM 39.9653 -105.3561 275° West 248 285 26,000  Level Denver Center
06:27PM 39.9700 -105.4439 274° West 245 282 26,000  Level Denver Center
06:28PM 39.9731 -105.5297 273° West 242 278 26,000  Level Denver Center
06:29PM 39.9758 -105.6214 272° West 252 290 26,000  Level Denver Center
06:30PM 39.9808 -105.7092 274° West 250 288 26,000 -480 Level Denver Center
06:31PM 39.9833 -105.7978 272° West 248 285 25,000 -1,380 Descending Denver Center
06:32PM 39.9875 -105.9219 273° West 246 283 22,900 -1,980 Descending Denver Center
06:33PM 39.9881 -106.0094 271° West 245 282 20,900 -1,740 Descending Denver Center
06:35PM 39.9900 -106.0953 272° West 242 278 19,000 -1,500 Descending Denver Center
06:36PM 39.9939 -106.1961 273° West 240 276 17,500 -1,500 Descending Denver Center
06:37PM 39.9964 -106.2775 272° West 233 268 15,900 -1,620 Descending Denver Center
06:38PM 39.9994 -106.3561 273° West 225 259 14,200 -960 Descending Denver Center
06:39PM 40.0036 -106.4472 273° West 218 251 14,000 -60 Descending Denver Center
06:40PM 39.9575 -106.4711 202° Southwest 200 230 14,100  Climbing Denver Center
06:41PM 39.9039 -106.4828 189° South 196 226 14,100  Level Denver Center
06:42PM 39.8469 -106.4958 190° South 197 227 14,100  Level Denver Center
06:43PM 39.7931 -106.5139 194° South 200 230 14,100 -300 Level Denver Center
06:44PM 39.7381 -106.5344 196° South 200 230 13,600 -600 Descending Denver Center
06:45PM 39.6894 -106.5783 215° Southwest 205 236 12,900 -1,020 Descending Denver Center
06:46PM 39.6831 -106.6478 263° West 197 227 11,500 -1,260 Descending Denver Center
06:47PM 39.6733 -106.7067 258° West 175 201 10,400 -1,140 Descending Denver Center
06:48PM 39.6642 -106.7661 259° West 170 196 9,200 -1,260 Descending Denver Center
06:49PM 39.6531 -106.8378 259° West 170 196 7,900 -1,140 Descending Denver Center
06:50PM 39.6456 -106.8867 259° West 155 178 6,900 -1,020 Descending Denver Center